createdAt,value
2018-03-22T00:02:00.928Z,9.25
2018-03-22T00:04:28.425Z,6.03
2018-03-22T00:06:55.947Z,5.60
2018-03-22T00:09:23.442Z,4.62
2018-03-22T00:11:50.927Z,6.07
2018-03-22T00:14:19.208Z,4.90
2018-03-22T00:16:47.474Z,8.27
2018-03-22T00:19:15.009Z,6.78
2018-03-22T00:21:42.506Z,5.35
2018-03-22T00:24:10.985Z,7.25
2018-03-22T00:26:38.734Z,8.82
2018-03-22T00:29:06.256Z,5.20
2018-03-22T00:31:33.778Z,4.93
2018-03-22T00:34:02.044Z,5.60
2018-03-22T00:36:29.550Z,7.80
2018-03-22T00:38:57.060Z,7.20
2018-03-22T00:41:25.338Z,3.28
2018-03-22T00:43:52.851Z,5.90
2018-03-22T00:46:20.361Z,8.35
2018-03-22T00:48:48.636Z,5.82
2018-03-22T00:51:16.144Z,4.60
2018-03-22T00:53:43.636Z,7.68
2018-03-22T00:56:11.148Z,5.12
2018-03-22T00:58:38.638Z,5.05
2018-03-22T01:01:06.191Z,5.25
2018-03-22T01:03:33.716Z,5.22
2018-03-22T01:06:01.967Z,7.45
2018-03-22T01:08:29.477Z,4.78
2018-03-22T01:10:56.978Z,4.68
2018-03-22T01:13:24.513Z,4.80
2018-03-22T01:15:52.740Z,6.75
2018-03-22T01:18:21.005Z,4.25
2018-03-22T01:20:49.286Z,4.62
2018-03-22T01:23:17.563Z,6.12
2018-03-22T01:25:45.818Z,3.50
2018-03-22T01:28:13.332Z,7.20
2018-03-22T01:30:42.671Z,3.15
2018-03-22T01:33:10.194Z,5.07
2018-03-22T01:35:37.695Z,13.45
2018-03-22T01:38:05.205Z,3.53
2018-03-22T01:40:32.727Z,4.05
2018-03-22T01:43:00.215Z,5.90
2018-03-22T01:45:27.737Z,3.40
2018-03-22T01:47:55.228Z,4.70
2018-03-22T01:50:23.513Z,4.45
2018-03-22T01:53:02.807Z,4.25
2018-03-22T01:55:30.295Z,4.25
2018-03-22T01:57:58.570Z,5.50
2018-03-22T02:00:26.832Z,4.30
2018-03-22T02:02:54.325Z,4.62
2018-03-22T02:05:21.840Z,4.18
2018-03-22T02:07:49.351Z,7.40
2018-03-22T02:10:16.878Z,4.22
2018-03-22T02:12:44.368Z,5.93
2018-03-22T02:15:11.855Z,6.90
2018-03-22T02:17:39.364Z,3.78
2018-03-22T02:20:07.628Z,4.93
2018-03-22T02:22:35.143Z,7.97
2018-03-22T02:25:02.633Z,6.15
2018-03-22T02:27:30.137Z,5.10
2018-03-22T02:29:57.649Z,6.05
2018-03-22T02:32:25.136Z,4.40
2018-03-22T02:34:53.417Z,4.55
2018-03-22T02:37:20.922Z,3.80
2018-03-22T02:39:48.411Z,3.53
2018-03-22T02:42:15.976Z,5.10
2018-03-22T02:44:43.471Z,4.93
2018-03-22T02:47:10.985Z,5.80
2018-03-22T02:49:38.477Z,4.15
2018-03-22T02:52:05.987Z,4.55
2018-03-22T02:54:33.496Z,9.05
2018-03-22T02:57:01.754Z,4.80
2018-03-22T02:59:29.276Z,5.10
2018-03-22T03:01:56.767Z,6.07
2018-03-22T03:04:24.256Z,8.13
2018-03-22T03:06:52.639Z,5.53
2018-03-22T03:09:20.154Z,3.70
2018-03-22T03:11:47.663Z,6.05
2018-03-22T03:14:15.173Z,3.45
2018-03-22T03:16:42.659Z,6.00
2018-03-22T03:19:10.949Z,4.68
2018-03-22T03:21:38.444Z,5.87
2018-03-22T03:24:05.963Z,5.37
2018-03-22T03:26:34.239Z,9.95
2018-03-22T03:29:02.511Z,7.37
2018-03-22T03:31:30.793Z,5.55
2018-03-22T03:33:59.060Z,4.72
2018-03-22T03:36:27.342Z,6.15
2018-03-22T03:38:55.613Z,5.55
2018-03-22T03:41:23.887Z,5.65
2018-03-22T03:43:52.166Z,5.20
2018-03-22T03:46:19.659Z,3.08
2018-03-22T03:48:47.184Z,3.55
2018-03-22T03:51:14.676Z,3.33
2018-03-22T03:53:42.159Z,5.05
2018-03-22T03:56:09.672Z,4.95
2018-03-22T03:58:37.939Z,5.05
2018-03-22T04:01:06.224Z,11.52
2018-03-22T04:03:34.487Z,5.72
2018-03-22T04:06:02.371Z,6.65
2018-03-22T04:08:30.627Z,3.42
2018-03-22T04:10:58.119Z,4.53
2018-03-22T04:13:25.632Z,3.85
2018-03-22T04:15:53.127Z,4.65
2018-03-22T04:18:21.400Z,4.87
2018-03-22T04:20:49.687Z,3.60
2018-03-22T04:23:17.957Z,3.58
2018-03-22T04:25:46.212Z,6.37
2018-03-22T04:28:13.696Z,5.45
2018-03-22T04:30:41.967Z,3.20
2018-03-22T04:33:10.219Z,5.35
2018-03-22T04:35:37.728Z,6.45
2018-03-22T04:38:05.219Z,5.72
2018-03-22T04:40:32.719Z,6.82
2018-03-22T04:43:00.973Z,4.12
2018-03-22T04:45:28.468Z,16.40
2018-03-22T04:47:55.979Z,7.18
2018-03-22T04:50:23.478Z,6.18
2018-03-22T04:52:51.745Z,7.72
2018-03-22T04:55:19.235Z,7.05
2018-03-22T04:57:46.744Z,4.95
2018-03-22T05:00:14.239Z,15.25
2018-03-22T05:02:42.487Z,5.93
2018-03-22T05:05:09.994Z,5.45
2018-03-22T05:07:37.711Z,6.15
2018-03-22T05:10:05.236Z,5.62
2018-03-22T05:12:32.762Z,5.32
2018-03-22T05:15:01.051Z,7.05
2018-03-22T05:17:28.549Z,4.65
2018-03-22T05:19:56.032Z,2.80
2018-03-22T05:22:23.534Z,5.47
2018-03-22T05:24:51.018Z,5.55
2018-03-22T05:27:18.526Z,5.28
2018-03-22T05:29:46.232Z,6.07
2018-03-22T05:32:13.745Z,4.53
2018-03-22T05:34:41.999Z,3.67
2018-03-22T05:37:09.512Z,5.97
2018-03-22T05:39:37.029Z,2.90
2018-03-22T05:42:04.518Z,4.62
2018-03-22T05:44:32.043Z,32.75
2018-03-22T05:46:59.544Z,4.18
2018-03-22T05:49:27.124Z,8.25
2018-03-22T05:51:54.607Z,7.32
2018-03-22T05:54:22.112Z,5.50
2018-03-22T05:56:49.628Z,5.07
2018-03-22T05:59:17.109Z,8.02
2018-03-22T06:01:44.637Z,10.73
2018-03-22T06:04:12.123Z,7.28
2018-03-22T06:06:39.632Z,5.20
2018-03-22T06:09:07.117Z,4.50
2018-03-22T06:11:34.663Z,6.53
2018-03-22T06:14:02.175Z,5.53
2018-03-22T06:16:30.444Z,10.98
2018-03-22T06:18:58.714Z,5.50
2018-03-22T06:21:26.204Z,10.35
2018-03-22T06:23:53.712Z,7.65
2018-03-22T06:28:55.837Z,3.33
2018-03-22T06:31:24.103Z,6.05
2018-03-22T06:33:52.363Z,7.62
2018-03-22T06:36:19.887Z,5.43
2018-03-22T06:38:47.391Z,6.40
2018-03-22T06:41:14.908Z,14.38
2018-03-22T06:43:42.420Z,9.38
2018-03-22T06:46:10.781Z,7.93
2018-03-22T06:48:40.859Z,8.80
2018-03-22T06:51:08.344Z,9.13
2018-03-22T06:53:36.171Z,9.75
2018-03-22T06:56:03.654Z,6.57
2018-03-22T06:58:31.220Z,5.97
2018-03-22T07:00:58.708Z,6.60
2018-03-22T07:03:26.219Z,6.60
2018-03-22T07:05:53.704Z,6.70
2018-03-22T07:08:21.179Z,7.22
2018-03-22T07:10:48.679Z,7.62
2018-03-22T07:13:16.174Z,10.30
2018-03-22T07:15:43.680Z,8.23
2018-03-22T07:18:11.927Z,6.47
2018-03-22T07:20:39.603Z,8.70
2018-03-22T07:23:07.137Z,11.20
2018-03-22T07:25:34.626Z,9.65
2018-03-22T07:28:02.265Z,5.87
2018-03-22T07:30:29.772Z,5.60
2018-03-22T07:32:58.272Z,6.20
2018-03-22T07:35:25.759Z,9.25
2018-03-22T07:37:53.288Z,5.72
2018-03-22T07:40:20.780Z,5.82
2018-03-22T07:42:53.962Z,10.02
2018-03-22T07:45:21.462Z,7.35
2018-03-22T07:47:48.959Z,7.93
2018-03-22T07:50:16.472Z,7.15
2018-03-22T07:52:43.959Z,8.30
2018-03-22T07:55:12.240Z,6.57
2018-03-22T07:57:40.495Z,9.60
2018-03-22T08:00:07.996Z,7.85
2018-03-22T08:02:35.499Z,13.75
2018-03-22T08:05:03.000Z,9.77
2018-03-22T08:07:30.512Z,6.03
2018-03-22T08:09:57.999Z,6.35
2018-03-22T08:12:26.346Z,9.15
2018-03-22T08:14:53.789Z,5.68
2018-03-22T08:17:21.332Z,11.12
2018-03-22T08:19:48.829Z,8.30
2018-03-22T08:22:16.317Z,9.27
2018-03-22T08:24:44.657Z,6.30
2018-03-22T08:27:12.159Z,12.85
2018-03-22T08:29:40.447Z,8.32
2018-03-22T08:32:07.935Z,9.68
2018-03-22T08:34:35.452Z,9.48
2018-03-22T08:37:03.703Z,5.65
2018-03-22T08:39:31.188Z,7.87
2018-03-22T08:41:59.458Z,9.07
2018-03-22T08:44:27.735Z,7.57
2018-03-22T08:46:55.256Z,5.95
2018-03-22T08:49:22.749Z,5.15
2018-03-22T08:51:50.256Z,7.62
2018-03-22T08:54:17.743Z,8.32
2018-03-22T08:56:45.239Z,6.47
2018-03-22T08:59:13.514Z,8.95
2018-03-22T09:01:41.777Z,10.57
2018-03-22T09:04:09.288Z,10.38
2018-03-22T09:06:36.785Z,8.90
2018-03-22T09:09:04.291Z,6.47
2018-03-22T09:11:31.799Z,7.45
2018-03-22T09:13:59.286Z,5.47
2018-03-22T09:16:27.553Z,6.43
2018-03-22T09:18:55.043Z,12.55
2018-03-22T09:21:22.551Z,9.60
2018-03-22T09:23:50.045Z,11.60
2018-03-22T09:26:18.320Z,9.32
2018-03-22T09:28:46.568Z,9.65
2018-03-22T09:31:14.064Z,8.63
2018-03-22T09:33:42.336Z,9.93
2018-03-22T09:36:10.592Z,8.20
2018-03-22T09:38:38.100Z,8.85
2018-03-22T09:41:05.590Z,11.82
2018-03-22T09:43:33.106Z,13.13
2018-03-22T09:46:00.596Z,12.43
2018-03-22T09:48:28.076Z,11.77
2018-03-22T09:50:55.595Z,8.65
2018-03-22T09:53:23.093Z,9.07
2018-03-22T09:55:50.611Z,7.97
2018-03-22T09:58:18.106Z,6.55
2018-03-22T10:00:45.620Z,10.55
2018-03-22T10:03:13.117Z,14.57
2018-03-22T10:05:40.608Z,10.68
2018-03-22T10:08:08.121Z,9.13
2018-03-22T10:10:35.612Z,8.77
2018-03-22T10:13:03.130Z,10.38
2018-03-22T10:15:30.641Z,11.25
2018-03-22T10:17:58.174Z,7.93
2018-03-22T10:20:25.688Z,11.90
2018-03-22T10:22:53.948Z,14.40
2018-03-22T10:25:22.223Z,12.48
2018-03-22T10:27:49.709Z,15.50
2018-03-22T10:30:17.248Z,12.35
2018-03-22T10:32:45.515Z,12.85
2018-03-22T10:35:13.024Z,14.93
2018-03-22T10:37:40.526Z,10.80
2018-03-22T10:40:08.007Z,11.50
2018-03-22T10:42:36.281Z,14.60
2018-03-22T10:45:04.542Z,14.75
2018-03-22T10:47:32.068Z,16.48
2018-03-22T10:49:59.563Z,13.55
2018-03-22T10:52:27.084Z,12.90
2018-03-22T10:54:54.567Z,16.27
2018-03-22T10:57:22.079Z,13.82
2018-03-22T10:59:49.601Z,13.52
2018-03-22T11:02:22.709Z,14.18
2018-03-22T11:04:51.048Z,14.93
2018-03-22T11:07:18.555Z,14.27
2018-03-22T11:09:46.833Z,14.13
2018-03-22T11:12:14.338Z,19.17
2018-03-22T11:14:41.869Z,15.50
2018-03-22T11:17:09.367Z,17.85
2018-03-22T11:19:36.863Z,13.98
2018-03-22T11:22:05.139Z,19.02
2018-03-22T11:24:33.388Z,14.38
2018-03-22T11:27:00.895Z,22.60
2018-03-22T11:29:28.616Z,17.85
2018-03-22T11:31:56.117Z,17.85
2018-03-22T11:34:23.632Z,20.10
2018-03-22T11:36:51.136Z,19.65
2018-03-22T11:39:18.876Z,26.02
2018-03-22T11:41:47.139Z,24.60
2018-03-22T11:44:14.623Z,19.90
2018-03-22T11:46:42.905Z,19.85
2018-03-22T11:49:11.169Z,20.10
2018-03-22T11:51:39.451Z,22.25
2018-03-22T11:54:07.714Z,23.12
2018-03-22T11:56:37.801Z,25.27
2018-03-22T11:59:05.350Z,21.70
2018-03-22T12:01:32.821Z,16.10
2018-03-22T12:04:00.332Z,16.02
2018-03-22T12:06:28.634Z,17.10
2018-03-22T12:08:56.161Z,13.38
2018-03-22T12:11:24.415Z,16.12
2018-03-22T12:13:52.765Z,16.83
2018-03-22T12:16:20.281Z,22.10
2018-03-22T12:18:48.544Z,25.55
2018-03-22T12:21:16.061Z,31.45
2018-03-22T12:23:43.551Z,21.85
2018-03-22T12:26:11.080Z,25.00
2018-03-22T12:28:38.588Z,25.62
2018-03-22T12:31:06.857Z,25.67
2018-03-22T12:33:34.369Z,25.90
2018-03-22T12:36:01.884Z,25.98
2018-03-22T12:38:30.189Z,29.35
2018-03-22T12:40:57.702Z,26.23
2018-03-22T12:43:25.267Z,25.05
2018-03-22T12:45:52.745Z,35.90
2018-03-22T12:48:20.277Z,28.12
2018-03-22T12:50:47.800Z,35.88
2018-03-22T12:53:15.284Z,33.58
2018-03-22T12:55:42.796Z,27.33
2018-03-22T12:58:10.297Z,27.90
2018-03-22T13:00:37.829Z,29.48
2018-03-22T13:03:05.321Z,33.47
2018-03-22T13:05:32.820Z,35.33
2018-03-22T13:08:01.109Z,29.00
2018-03-22T13:10:29.379Z,22.42
2018-03-22T13:12:57.803Z,27.83
2018-03-22T13:15:25.306Z,26.23
2018-03-22T13:17:52.841Z,22.85
2018-03-22T13:20:20.344Z,34.38
2018-03-22T13:22:48.634Z,26.05
2018-03-22T13:25:16.167Z,30.12
2018-03-22T13:27:44.490Z,30.05
2018-03-22T13:30:12.735Z,29.33
2018-03-22T13:32:40.325Z,31.30
2018-03-22T13:35:07.843Z,31.23
2018-03-22T13:37:36.117Z,33.65
2018-03-22T13:40:04.403Z,30.92
2018-03-22T13:42:32.695Z,29.27
2018-03-22T13:45:00.202Z,29.25
2018-03-22T13:47:27.718Z,30.08
2018-03-22T13:49:55.211Z,27.92
2018-03-22T13:52:22.732Z,30.62
2018-03-22T13:54:50.227Z,28.87
2018-03-22T13:57:17.732Z,30.02
2018-03-22T13:59:46.021Z,28.58
2018-03-22T14:02:14.275Z,30.73
2018-03-22T14:04:41.797Z,28.90
2018-03-22T14:07:09.304Z,33.63
2018-03-22T14:09:37.602Z,26.83
2018-03-22T14:12:05.108Z,34.08
2018-03-22T14:14:32.615Z,32.95
2018-03-22T14:17:00.892Z,32.47
2018-03-22T14:19:29.163Z,31.90
2018-03-22T14:21:56.682Z,34.65
2018-03-22T14:24:24.200Z,30.15
2018-03-22T14:26:52.375Z,32.83
2018-03-22T14:29:19.918Z,26.40
2018-03-22T14:31:48.182Z,23.38
2018-03-22T14:34:16.489Z,29.45
2018-03-22T14:36:43.994Z,23.80
2018-03-22T14:39:11.503Z,26.98
2018-03-22T14:41:39.010Z,25.85
2018-03-22T14:44:06.556Z,28.02
2018-03-22T14:46:34.051Z,24.35
2018-03-22T14:49:01.548Z,26.65
2018-03-22T14:51:29.088Z,29.95
2018-03-22T14:53:57.353Z,22.48
2018-03-22T14:56:25.643Z,26.85
2018-03-22T14:58:53.909Z,23.80
2018-03-22T15:01:21.435Z,24.63
2018-03-22T15:03:48.945Z,24.23
2018-03-22T15:06:17.266Z,26.80
2018-03-22T15:08:44.760Z,25.90
2018-03-22T15:11:12.260Z,24.58
2018-03-22T15:13:39.790Z,24.02
2018-03-22T15:16:08.112Z,21.75
2018-03-22T15:18:35.662Z,22.92
2018-03-22T15:21:03.170Z,23.12
2018-03-22T15:23:30.668Z,26.33
2018-03-22T15:25:58.204Z,28.00
2018-03-22T15:28:26.496Z,21.58
2018-03-22T15:30:54.790Z,26.50
2018-03-22T15:33:22.370Z,24.55
2018-03-22T15:35:49.980Z,22.33
2018-03-22T15:38:17.477Z,21.90
2018-03-22T15:40:44.977Z,24.45
2018-03-22T15:43:12.509Z,20.30
2018-03-22T15:45:40.040Z,21.65
2018-03-22T15:48:07.564Z,21.55
2018-03-22T15:50:35.065Z,17.60
2018-03-22T15:53:03.214Z,22.52
2018-03-22T15:55:31.496Z,22.90
2018-03-22T15:57:59.762Z,22.13
2018-03-22T16:00:27.273Z,23.65
2018-03-22T16:02:54.784Z,19.92
2018-03-22T16:05:22.295Z,23.73
2018-03-22T16:07:49.784Z,24.83
2018-03-22T16:10:17.311Z,24.98
2018-03-22T16:12:44.826Z,23.38
2018-03-22T16:15:13.107Z,25.15
2018-03-22T16:17:41.400Z,21.30
2018-03-22T16:20:08.897Z,21.83
2018-03-22T16:22:36.422Z,24.63
2018-03-22T16:25:03.924Z,21.15
2018-03-22T16:27:31.439Z,23.45
2018-03-22T16:29:58.943Z,22.37
2018-03-22T16:32:26.440Z,22.35
2018-03-22T16:34:54.737Z,29.65
2018-03-22T16:37:22.239Z,27.98
2018-03-22T16:39:49.746Z,24.80
2018-03-22T16:42:18.019Z,22.80
2018-03-22T16:44:46.304Z,26.70
2018-03-22T16:47:14.568Z,26.45
2018-03-22T16:49:42.840Z,29.27
2018-03-22T16:52:11.144Z,32.50
2018-03-22T16:54:38.631Z,29.25
2018-03-22T16:57:06.139Z,31.90
2018-03-22T16:59:34.403Z,30.62
2018-03-22T17:02:01.965Z,33.22
2018-03-22T17:04:29.431Z,36.58
2018-03-22T17:06:57.742Z,28.52
2018-03-22T17:09:25.301Z,33.33
2018-03-22T17:11:53.539Z,31.67
2018-03-22T17:14:21.060Z,28.55
2018-03-22T17:16:48.556Z,33.05
2018-03-22T17:19:16.105Z,30.23
2018-03-22T17:21:43.596Z,67.10
2018-03-22T17:24:11.871Z,33.47
2018-03-22T17:26:39.391Z,39.05
2018-03-22T17:29:06.903Z,35.67
2018-03-22T17:31:34.420Z,27.80
2018-03-22T17:34:02.139Z,30.37
2018-03-22T17:36:29.690Z,34.72
2018-03-22T17:38:57.207Z,38.08
2018-03-22T17:41:24.727Z,29.42
2018-03-22T17:43:52.370Z,34.58
2018-03-22T17:46:19.882Z,34.28
2018-03-22T17:48:47.401Z,36.80
2018-03-22T17:51:14.910Z,36.72
2018-03-22T17:53:42.429Z,35.05
2018-03-22T17:56:09.936Z,35.28
2018-03-22T17:58:37.435Z,37.17
2018-03-22T18:01:04.952Z,36.78
2018-03-22T18:03:32.451Z,33.35
2018-03-22T18:05:59.976Z,34.78
2018-03-22T18:08:27.495Z,40.22
2018-03-22T18:10:55.054Z,40.58
2018-03-22T18:13:22.552Z,33.70
2018-03-22T18:15:50.066Z,35.70
2018-03-22T18:18:17.596Z,41.03
2018-03-22T18:20:45.872Z,45.72
2018-03-22T18:23:14.191Z,37.65
2018-03-22T18:25:41.698Z,33.50
2018-03-22T18:28:09.993Z,36.90
2018-03-22T18:30:37.527Z,34.10
2018-03-22T18:33:05.017Z,34.15
2018-03-22T18:35:32.583Z,36.17
2018-03-22T18:38:00.046Z,32.90
2018-03-22T18:40:27.580Z,34.75
2018-03-22T18:42:55.081Z,34.95
2018-03-22T18:45:22.596Z,38.10
2018-03-22T18:47:50.868Z,36.13
2018-03-22T18:50:19.144Z,36.03
2018-03-22T18:52:47.429Z,36.70
2018-03-22T18:55:15.694Z,36.33
2018-03-22T18:57:43.233Z,39.10
2018-03-22T19:00:10.732Z,36.70
2018-03-22T19:02:38.247Z,34.13
2018-03-22T19:05:05.763Z,36.88
2018-03-22T19:07:33.272Z,32.35
2018-03-22T19:10:00.789Z,29.00
2018-03-22T19:12:28.287Z,29.45
2018-03-22T19:14:55.803Z,31.60
2018-03-22T19:17:23.291Z,33.22
2018-03-22T19:19:50.806Z,27.52
2018-03-22T19:22:19.078Z,31.20
2018-03-22T19:24:47.362Z,43.40
2018-03-22T19:27:15.648Z,27.25
2018-03-22T19:29:43.159Z,27.30
2018-03-22T19:32:10.693Z,30.73
2018-03-22T19:34:38.211Z,30.67
2018-03-22T19:37:06.520Z,28.75
2018-03-22T19:39:34.774Z,29.50
2018-03-22T19:42:02.280Z,30.62
2018-03-22T19:44:29.818Z,26.85
2018-03-22T19:46:57.321Z,31.10
2018-03-22T19:49:24.849Z,31.52
2018-03-22T19:51:52.349Z,30.55
2018-03-22T19:54:19.890Z,25.80
2018-03-22T19:56:47.397Z,25.37
2018-03-22T19:59:14.891Z,23.08
2018-03-22T20:01:42.410Z,23.00
2018-03-22T20:04:09.931Z,21.87
2018-03-22T20:06:37.458Z,24.40
2018-03-22T20:09:04.951Z,26.37
2018-03-22T20:11:32.468Z,24.87
2018-03-22T20:13:59.996Z,22.77
2018-03-22T20:16:28.261Z,20.83
2018-03-22T20:18:55.777Z,22.27
2018-03-22T20:21:23.277Z,25.23
2018-03-22T20:23:50.792Z,25.50
2018-03-22T20:26:18.346Z,27.00
2018-03-22T20:28:46.610Z,25.25
2018-03-22T20:31:14.128Z,23.65
2018-03-22T20:33:41.623Z,22.55
2018-03-22T20:36:09.906Z,21.55
2018-03-22T20:38:37.408Z,26.42
2018-03-22T20:41:04.946Z,29.05
2018-03-22T20:43:32.449Z,26.25
2018-03-22T20:45:59.967Z,21.37
2018-03-22T20:48:27.467Z,23.45
2018-03-22T20:50:54.951Z,24.25
2018-03-22T20:53:22.472Z,27.48
2018-03-22T20:55:50.015Z,26.55
2018-03-22T20:58:17.577Z,25.25
2018-03-22T21:00:45.031Z,17.17
2018-03-22T21:03:12.560Z,23.17
2018-03-22T21:05:40.082Z,25.35
2018-03-22T21:08:07.581Z,27.37
2018-03-22T21:10:35.107Z,22.75
2018-03-22T21:13:02.614Z,24.85
2018-03-22T21:15:30.141Z,26.73
2018-03-22T21:17:58.409Z,22.90
2018-03-22T21:20:25.929Z,24.50
2018-03-22T21:22:53.416Z,25.45
2018-03-22T21:25:20.919Z,20.77
2018-03-22T21:27:48.477Z,21.02
2018-03-22T21:30:15.979Z,23.98
2018-03-22T21:32:43.496Z,23.73
2018-03-22T21:35:10.993Z,25.15
2018-03-22T21:37:38.516Z,24.65
2018-03-22T21:40:06.012Z,24.27
2018-03-22T21:42:33.519Z,25.58
2018-03-22T21:45:01.796Z,28.15
2018-03-22T21:47:32.022Z,28.27
2018-03-22T21:50:00.297Z,25.92
2018-03-22T21:52:40.376Z,22.40
2018-03-22T21:55:07.926Z,24.52
2018-03-22T21:57:35.432Z,26.25
2018-03-22T22:00:02.951Z,23.05
2018-03-22T22:02:30.456Z,25.17
2018-03-22T22:04:57.980Z,23.42
2018-03-22T22:07:25.499Z,25.98
2018-03-22T22:09:53.772Z,25.50
2018-03-22T22:12:22.055Z,24.23
2018-03-22T22:14:50.321Z,26.52
2018-03-22T22:17:18.623Z,22.75
2018-03-22T22:19:46.922Z,23.42
2018-03-22T22:22:14.413Z,21.73
2018-03-22T22:24:41.928Z,20.45
2018-03-22T22:27:09.430Z,22.87
2018-03-22T22:29:36.984Z,25.55
2018-03-22T22:32:04.484Z,22.55
2018-03-22T22:34:32.776Z,22.98
2018-03-22T22:37:01.037Z,22.50
2018-03-22T22:39:29.309Z,22.00
2018-03-22T22:41:56.838Z,24.83
2018-03-22T22:44:24.331Z,18.08
2018-03-22T22:46:52.618Z,18.98
2018-03-22T22:49:20.891Z,20.17
2018-03-22T22:51:48.404Z,20.92
2018-03-22T22:54:15.896Z,20.27
2018-03-22T22:56:43.434Z,21.17
2018-03-22T22:59:10.947Z,20.48
2018-03-22T23:01:38.452Z,19.33
2018-03-22T23:04:05.974Z,16.52
2018-03-22T23:06:33.482Z,18.87
2018-03-22T23:09:00.999Z,19.90
2018-03-22T23:11:28.497Z,20.88
2018-03-22T23:13:56.015Z,17.48
2018-03-22T23:16:23.587Z,17.05
2018-03-22T23:18:51.822Z,15.27
2018-03-22T23:21:20.238Z,15.50
2018-03-22T23:23:47.733Z,19.92
2018-03-22T23:26:15.247Z,15.40
2018-03-22T23:28:42.753Z,21.65
2018-03-22T23:31:10.265Z,14.80
2018-03-22T23:33:37.780Z,16.05
2018-03-22T23:36:05.281Z,15.68
2018-03-22T23:38:32.793Z,23.60
2018-03-22T23:41:00.502Z,16.25
2018-03-22T23:43:28.015Z,14.95
2018-03-22T23:45:55.515Z,14.95
2018-03-22T23:48:23.763Z,13.55
2018-03-22T23:50:51.286Z,18.62
2018-03-22T23:53:18.778Z,17.23
2018-03-22T23:55:46.294Z,16.90
2018-03-22T23:58:13.793Z,17.65
